Share

Jasper, TX

4:25 AM CDT on April 25, 2014 (GMT -0500)
North Jasper (KTXJASPE3) Elev 308 ft | 30.93 °N, 94.00 °W | Change Station

Current weather conditions updated 28 minutes ago

Overcast
Overcast
66.6 °F
Feels Like 66.6 °F
N
0.0
Wind Variable Wind from South
Gusts 0.0 mph
Sunrise 6:37 AM
Sunset 7:50 PM
Moon Waning Crescent

Today is forecast to be Warmer than yesterday.

Pressure 29.96 in
Visibility 7.0 miles
Clouds Overcast 800 ft
Dew Point 64 °F
Humidity 92%
Rainfall 0.00 in
Snow Depth Not available.
UV 0 out of 16
Pollen 7.20 out of 12
Air Quality Not available.
Flu Activity Local Activity
METAR KJAS 250915Z AUTO 00000KT 7SM OVC008 19/18 A2996 RMK AO2 T01890181

More Conditions Fewer Conditions

Pressure 29.96 in
Visibility 7.0 miles
Clouds Overcast 800 ft
Dew Point 64 °F
Humidity 92%
Rainfall 0.00 in
Snow Depth Not available.
UV 0 out of 16
Pollen 7.20 out of 12
Air Quality Not available.
Flu Activity Local Activity
METAR KJAS 250915Z AUTO 00000KT 7SM OVC008 19/18 A2996 RMK AO2 T01890181

More Conditions Fewer Conditions

10-Day Weather Forecast

Almanac

Astronomy

Apr. 25, 2014 Rise Set
Actual Time 6:37 AM CDT 7:50 PM CDT
Civil Twilight 6:12 AM CDT 8:16 PM CDT
Nautical Twilight 5:42 AM CDT 8:46 PM CDT
Astronomical Twilight 5:11 AM CDT 9:17 PM CDT
Moon 4:09 AM CDT 4:28 PM CDT
Length of Visible Light 14h 03m
Length of Day
13h 13m
Tomorrow will be 1m 40s longer.
Waning Crescent, 18% of the Moon is Illuminated
Today
Waning Crescent
Apr 29
New
May 6
First Quarter
May 14
Full
May 21
Last Quarter

Today's Extremes

State Highs State Lows

Community

  • Storm Clouds & Sunset
    Storm Clouds & Sunset
  • Deer in evening light
    Deer in evening light
  • Critter
    Critter
  • Jone Runs Falls
    Jone Runs Falls
  • Easter in Shenandoah National Park
    Easter in Shenandoah National Park

WunderPhotos

Upload Photos

1,704,874 photos uploaded!

WunderBlogs® & News

Nearby

Snow Depth

Station Depth Elevation
No new snow has been reported.

Coastal Water Temperatures

Place Temperature
No Stations Reporting

Earthquake Activity

City Distance Mag. Time & Date
No recent earthquake activity has been reported nearby.
Minimum magnitude displayed is 2.5.

Nearby Weather Stations

Station Location Temp. Dew Point Humidity Wind Precip. Elev Updated Type
North Jasper, Jasper, TX 66.6 °F 64 °F 92% South  at  0.0 mph 0.00 in / hr 308 ft 3:56 AM CDT Normal
COLMESNEIL, Colmesneil, TX 67.1 °F 66 °F 96% North  at  0.0 mph 0.00 in / hr 328 ft 4:24 AM CDT Rapid Fire

Show More Stations Show Fewer Stations

What do you think?

We're not finished. Please let us know what you like, what you don't like, and what you are still missing.